Time;durP1;ratioP1;P1;durP2;ratioP2;P2;SDS_P1;SDS_P2;PMS_P1;PMS_P2;Temp;Humidity;BMP_temperature;BMP_pressure;BME280_temperature;BME280_humidity;BME280_pressure;Samples;Min_cycle;Max_cycle;Signal;HPM_P1;HPM_P2
2021/09/14 00:00:19;;;;;;;8.00;5.70;;;;;;;;;;5085345;28;20031;-66
2021/09/14 00:02:44;;;;;;;6.95;5.82;;;;;;;;;;5104371;28;20373;-65
2021/09/14 00:05:10;;;;;;;6.78;5.80;;;;;;;;;;5106024;28;20026;-65
2021/09/14 00:07:35;;;;;;;7.68;5.47;;;;;;;;;;5104576;28;20493;-64
2021/09/14 00:10:01;;;;;;;7.05;5.70;;;;;;;;;;5087035;28;20540;-63
2021/09/14 00:12:26;;;;;;;6.07;5.47;;;;;;;;;;5095754;28;20377;-65
2021/09/14 00:14:52;;;;;;;6.65;5.95;;;;;;;;;;5080251;28;20020;-65
2021/09/14 00:17:17;;;;;;;8.60;6.38;;;;;;;;;;5084498;28;20043;-64
2021/09/14 00:19:42;;;;;;;7.18;5.80;;;;;;;;;;5105205;28;20027;-65
2021/09/14 00:22:08;;;;;;;7.80;6.22;;;;;;;;;;5086435;28;20023;-66
2021/09/14 00:24:33;;;;;;;7.25;6.10;;;;;;;;;;5106039;28;20027;-65
2021/09/14 00:26:58;;;;;;;8.23;6.03;;;;;;;;;;5096279;28;20023;-64
2021/09/14 00:29:24;;;;;;;8.00;7.18;;;;;;;;;;5100100;28;20048;-63
2021/09/14 00:31:49;;;;;;;7.28;5.88;;;;;;;;;;5105410;28;20046;-65
2021/09/14 00:34:14;;;;;;;7.18;6.47;;;;;;;;;;5099149;28;20032;-65
2021/09/14 00:36:40;;;;;;;8.07;6.47;;;;;;;;;;5108873;28;20528;-64
2021/09/14 00:39:05;;;;;;;7.70;6.50;;;;;;;;;;5109106;27;20027;-66
2021/09/14 00:41:30;;;;;;;7.80;6.40;;;;;;;;;;5107808;28;20499;-66
2021/09/14 00:44:01;;;;;;;8.35;5.80;;;;;;;;;;5106939;28;20039;-66
2021/09/14 00:46:27;;;;;;;8.93;5.90;;;;;;;;;;5100972;28;20114;-68
2021/09/14 00:48:53;;;;;;;10.52;6.20;;;;;;;;;;5097720;28;20053;-66
2021/09/14 00:51:19;;;;;;;6.88;5.88;;;;;;;;;;5106521;28;20031;-65
2021/09/14 00:53:47;;;;;;;6.18;5.57;;;;;;;;;;5099316;28;20015;-64
2021/09/14 00:56:14;;;;;;;6.60;5.90;;;;;;;;;;5097197;28;20031;-66
2021/09/14 00:58:39;;;;;;;6.60;5.90;;;;;;;;;;5098061;28;20035;-66
2021/09/14 01:01:04;;;;;;;7.63;6.50;;;;;;;;;;5098327;28;20441;-65
2021/09/14 01:03:30;;;;;;;7.95;6.18;;;;;;;;;;5097684;28;20512;-66
2021/09/14 01:05:56;;;;;;;8.55;6.57;;;;;;;;;;5079917;28;20102;-64
2021/09/14 01:08:21;;;;;;;8.95;6.13;;;;;;;;;;5100177;28;20469;-65
2021/09/14 01:10:47;;;;;;;8.30;6.53;;;;;;;;;;5100827;28;20032;-66
2021/09/14 01:13:12;;;;;;;9.43;6.30;;;;;;;;;;5098662;28;20047;-64
2021/09/14 01:15:38;;;;;;;7.90;6.50;;;;;;;;;;5097503;28;20433;-67
2021/09/14 01:18:04;;;;;;;7.20;6.50;;;;;;;;;;5097095;28;20572;-65
2021/09/14 01:20:30;;;;;;;7.07;6.25;;;;;;;;;;5085436;28;20051;-68
2021/09/14 01:22:55;;;;;;;9.20;6.53;;;;;;;;;;5107557;28;20157;-65
2021/09/14 01:25:22;;;;;;;7.90;6.60;;;;;;;;;;5108267;28;20095;-65
2021/09/14 01:27:48;;;;;;;6.75;6.07;;;;;;;;;;5103340;28;20065;-65
2021/09/14 01:30:19;;;;;;;7.13;6.40;;;;;;;;;;5107041;28;20044;-64
2021/09/14 01:32:46;;;;;;;7.00;6.30;;;;;;;;;;5106121;28;20023;-65
2021/09/14 01:35:17;;;;;;;7.78;6.38;;;;;;;;;;5102539;28;20031;-66
2021/09/14 01:37:42;;;;;;;6.68;5.97;;;;;;;;;;5097842;28;20478;-65
2021/09/14 01:40:08;;;;;;;7.75;6.80;;;;;;;;;;5079146;28;20031;-64
2021/09/14 01:45:55;;;;;;;8.15;6.63;;;;;;;;;;5095907;28;20076;-66
2021/09/14 01:48:21;;;;;;;8.27;6.70;;;;;;;;;;5098623;28;20123;-63
2021/09/14 01:50:46;;;;;;;8.85;6.70;;;;;;;;;;5088009;28;20028;-69
2021/09/14 01:53:11;;;;;;;9.70;6.40;;;;;;;;;;5108263;28;20035;-62
2021/09/14 01:55:37;;;;;;;6.90;6.20;;;;;;;;;;5107784;28;20054;-64
2021/09/14 01:58:03;;;;;;;7.28;6.35;;;;;;;;;;5099843;28;20032;-66
2021/09/14 02:00:33;;;;;;;10.57;6.88;;;;;;;;;;5110613;28;20058;-66
2021/09/14 02:58:46;;;;;;;7.72;6.93;;;;;;;;;;5112478;28;20024;-64
2021/09/14 03:01:13;;;;;;;9.23;6.80;;;;;;;;;;5111908;28;20023;-65
2021/09/14 03:03:43;;;;;;;8.65;6.97;;;;;;;;;;5094912;28;20016;-65
2021/09/14 03:06:10;;;;;;;8.95;7.63;;;;;;;;;;5090105;28;20024;-64
2021/09/14 03:08:36;;;;;;;8.23;6.72;;;;;;;;;;5105721;28;20030;-64
2021/09/14 03:11:09;;;;;;;7.10;6.40;;;;;;;;;;5092884;28;20023;-64
2021/09/14 03:13:36;;;;;;;9.18;6.35;;;;;;;;;;5087666;28;20034;-65
2021/09/14 03:16:04;;;;;;;6.97;6.28;;;;;;;;;;5092268;28;20031;-65
2021/09/14 03:18:30;;;;;;;9.57;7.30;;;;;;;;;;5111543;28;20028;-64
2021/09/14 03:20:55;;;;;;;8.80;6.63;;;;;;;;;;5087046;28;20026;-65
2021/09/14 03:23:20;;;;;;;8.13;7.32;;;;;;;;;;5110967;28;20030;-65
2021/09/14 03:25:46;;;;;;;9.00;7.00;;;;;;;;;;5112249;28;20019;-67
2021/09/14 03:28:11;;;;;;;8.52;7.63;;;;;;;;;;5112461;28;20373;-65
2021/09/14 03:30:37;;;;;;;8.30;7.05;;;;;;;;;;5112542;28;20036;-65
2021/09/14 03:33:03;;;;;;;9.60;6.80;;;;;;;;;;5111659;28;20106;-66
2021/09/14 03:35:28;;;;;;;7.40;6.60;;;;;;;;;;5111044;28;20100;-66
2021/09/14 03:37:54;;;;;;;10.27;7.25;;;;;;;;;;5092724;28;20449;-65
2021/09/14 03:40:19;;;;;;;8.32;6.82;;;;;;;;;;5093952;28;20032;-63
2021/09/14 03:42:45;;;;;;;7.53;6.72;;;;;;;;;;5113713;27;20030;-65
2021/09/14 03:45:10;;;;;;;7.85;6.90;;;;;;;;;;5092326;28;20384;-67
2021/09/14 03:47:36;;;;;;;8.55;6.75;;;;;;;;;;5092199;28;20055;-64
2021/09/14 03:50:02;;;;;;;8.50;6.60;;;;;;;;;;5101110;28;20034;-65
2021/09/14 03:52:27;;;;;;;9.27;6.95;;;;;;;;;;5107286;27;20031;-64
2021/09/14 03:54:52;;;;;;;7.80;6.65;;;;;;;;;;5091307;28;20019;-64
2021/09/14 03:57:18;;;;;;;8.65;7.10;;;;;;;;;;4032933;28;10000823;-63
2021/09/14 03:59:43;;;;;;;8.07;7.28;;;;;;;;;;5080238;28;20028;-63
2021/09/14 04:02:15;;;;;;;7.47;6.60;;;;;;;;;;5103593;28;20023;-66
2021/09/14 04:05:02;;;;;;;8.05;7.00;;;;;;;;;;5107214;28;20020;-64
2021/09/14 04:10:11;;;;;;;9.02;7.32;;;;;;;;;;5108728;28;20035;-64
2021/09/14 04:12:36;;;;;;;8.95;7.57;;;;;;;;;;5091143;28;20392;-63
2021/09/14 04:15:03;;;;;;;8.30;7.25;;;;;;;;;;5109276;28;20389;-64
2021/09/14 04:17:28;;;;;;;9.68;7.57;;;;;;;;;;5108666;28;20016;-66
2021/09/14 04:19:53;;;;;;;8.70;7.80;;;;;;;;;;5089858;28;20047;-63
2021/09/14 04:22:19;;;;;;;8.38;6.90;;;;;;;;;;5106289;28;20110;-63
2021/09/14 04:24:44;;;;;;;9.93;7.32;;;;;;;;;;5089888;28;20026;-68
2021/09/14 04:27:10;;;;;;;8.38;7.45;;;;;;;;;;5093007;28;20026;-64
2021/09/14 04:29:35;;;;;;;9.18;7.75;;;;;;;;;;5093368;28;20051;-65
2021/09/14 04:32:00;;;;;;;7.82;7.03;;;;;;;;;;5092538;28;20023;-65
2021/09/14 04:34:26;;;;;;;8.32;7.20;;;;;;;;;;5103767;28;20058;-64
2021/09/14 04:36:52;;;;;;;8.68;7.10;;;;;;;;;;4736297;28;10000523;-64
2021/09/14 04:39:18;;;;;;;9.95;7.38;;;;;;;;;;5080786;28;20140;-65
2021/09/14 04:41:44;;;;;;;9.07;7.40;;;;;;;;;;5102168;28;20019;-65
2021/09/14 04:44:09;;;;;;;8.50;7.28;;;;;;;;;;5097705;28;20038;-65
2021/09/14 04:46:35;;;;;;;8.48;7.53;;;;;;;;;;5077083;28;20504;-65
2021/09/14 04:49:00;;;;;;;10.75;7.65;;;;;;;;;;5079432;28;20032;-67
2021/09/14 04:51:25;;;;;;;8.07;7.28;;;;;;;;;;5098825;28;20020;-63
2021/09/14 04:53:51;;;;;;;10.35;7.45;;;;;;;;;;5104492;28;20027;-64
2021/09/14 04:56:16;;;;;;;8.73;7.82;;;;;;;;;;5086238;28;20105;-65
2021/09/14 04:58:43;;;;;;;9.95;7.45;;;;;;;;;;5086107;28;20110;-65
2021/09/14 05:01:08;;;;;;;10.52;7.38;;;;;;;;;;5097334;28;20034;-66
2021/09/14 05:03:34;;;;;;;9.02;7.47;;;;;;;;;;5090446;28;20024;-65
2021/09/14 05:05:59;;;;;;;8.45;7.55;;;;;;;;;;5076331;28;20115;-65
2021/09/14 05:08:24;;;;;;;8.35;7.18;;;;;;;;;;5095089;28;20020;-64
2021/09/14 05:10:51;;;;;;;8.68;7.38;;;;;;;;;;5076760;28;20388;-66
2021/09/14 05:13:17;;;;;;;9.75;7.35;;;;;;;;;;5094095;28;20065;-65
2021/09/14 05:15:43;;;;;;;10.13;7.78;;;;;;;;;;5097558;28;20024;-64
2021/09/14 05:18:11;;;;;;;8.55;7.65;;;;;;;;;;5098245;28;20024;-67
2021/09/14 05:20:37;;;;;;;11.15;7.68;;;;;;;;;;5104788;28;20043;-64
2021/09/14 05:23:11;;;;;;;9.25;8.20;;;;;;;;;;5090489;28;20106;-64
2021/09/14 05:25:38;;;;;;;11.27;8.80;;;;;;;;;;5108583;28;20053;-67
2021/09/14 05:28:03;;;;;;;9.80;8.07;;;;;;;;;;5098554;28;20023;-67
2021/09/14 05:30:29;;;;;;;11.02;8.25;;;;;;;;;;5081967;28;20047;-64
2021/09/14 05:32:54;;;;;;;10.40;7.80;;;;;;;;;;5103588;28;20238;-65
2021/09/14 05:35:24;;;;;;;11.20;9.23;;;;;;;;;;5107290;27;20529;-66
2021/09/14 05:37:49;;;;;;;10.43;8.32;;;;;;;;;;5106652;27;20070;-65
2021/09/14 05:40:14;;;;;;;9.70;8.20;;;;;;;;;;5105794;28;20430;-66
2021/09/14 05:42:40;;;;;;;10.90;7.97;;;;;;;;;;5089845;28;20024;-65
2021/09/14 05:45:06;;;;;;;9.65;8.30;;;;;;;;;;5107613;28;20432;-65
2021/09/14 05:47:31;;;;;;;9.75;8.00;;;;;;;;;;5105105;28;20036;-64
2021/09/14 05:49:58;;;;;;;11.32;8.90;;;;;;;;;;5106180;28;20032;-67
2021/09/14 05:52:24;;;;;;;10.55;9.15;;;;;;;;;;5106808;28;20440;-66
2021/09/14 05:54:49;;;;;;;10.32;8.50;;;;;;;;;;5089237;28;20487;-64
2021/09/14 05:57:14;;;;;;;12.57;8.88;;;;;;;;;;5108218;28;20152;-63
2021/09/14 05:59:40;;;;;;;9.50;8.02;;;;;;;;;;5106198;28;20024;-63
2021/09/14 06:02:05;;;;;;;9.60;8.40;;;;;;;;;;5106285;28;20098;-64
2021/09/14 06:04:31;;;;;;;9.25;8.27;;;;;;;;;;5107309;28;20377;-67
2021/09/14 06:06:56;;;;;;;9.63;8.27;;;;;;;;;;5107283;28;20020;-66
2021/09/14 06:09:22;;;;;;;10.38;8.40;;;;;;;;;;5108003;28;20024;-65
2021/09/14 06:11:47;;;;;;;9.48;8.45;;;;;;;;;;5107884;28;20468;-64
2021/09/14 06:14:12;;;;;;;9.55;8.63;;;;;;;;;;5106451;28;20027;-64
2021/09/14 06:16:38;;;;;;;10.10;8.95;;;;;;;;;;5105949;28;20393;-64
2021/09/14 06:19:03;;;;;;;12.20;8.27;;;;;;;;;;5084092;28;20028;-65
2021/09/14 06:21:28;;;;;;;10.50;8.55;;;;;;;;;;5100930;28;20024;-65
2021/09/14 06:23:54;;;;;;;8.77;7.88;;;;;;;;;;5104033;27;20019;-67
2021/09/14 06:26:19;;;;;;;10.00;8.60;;;;;;;;;;5105696;28;20135;-64
2021/09/14 06:28:45;;;;;;;9.55;8.40;;;;;;;;;;5106240;27;20023;-66
2021/09/14 06:31:10;;;;;;;11.75;8.73;;;;;;;;;;5101160;28;20028;-66
2021/09/14 06:33:36;;;;;;;8.55;7.50;;;;;;;;;;5104982;28;20036;-64
2021/09/14 06:36:01;;;;;;;8.75;7.88;;;;;;;;;;5087505;28;20050;-63
2021/09/14 06:38:26;;;;;;;9.27;8.13;;;;;;;;;;5088414;28;20020;-66
2021/09/14 06:40:52;;;;;;;9.02;7.40;;;;;;;;;;5105258;27;20031;-65
2021/09/14 06:43:17;;;;;;;8.60;7.35;;;;;;;;;;5104824;28;20023;-62
2021/09/14 06:45:43;;;;;;;9.02;8.13;;;;;;;;;;5087123;28;20066;-66
2021/09/14 06:48:10;;;;;;;8.95;8.05;;;;;;;;;;5103405;28;20484;-63
2021/09/14 06:50:36;;;;;;;11.82;7.40;;;;;;;;;;5086238;28;20020;-62
2021/09/14 06:53:01;;;;;;;9.10;8.00;;;;;;;;;;5105177;28;20019;-65
2021/09/14 06:55:26;;;;;;;9.40;8.13;;;;;;;;;;5104407;28;20023;-66
2021/09/14 06:57:52;;;;;;;9.30;8.40;;;;;;;;;;5086580;28;20110;-65
2021/09/14 07:00:17;;;;;;;9.13;8.02;;;;;;;;;;5104140;28;20860;-66
2021/09/14 07:02:43;;;;;;;8.13;7.32;;;;;;;;;;5104951;28;20020;-67
2021/09/14 07:05:09;;;;;;;9.05;7.90;;;;;;;;;;5105255;28;20126;-66
2021/09/14 07:07:34;;;;;;;8.65;7.18;;;;;;;;;;5104808;28;20107;-65
2021/09/14 07:10:02;;;;;;;9.85;7.75;;;;;;;;;;5105839;28;20111;-67
2021/09/14 07:12:28;;;;;;;8.60;7.32;;;;;;;;;;5103672;27;20777;-64
2021/09/14 07:14:53;;;;;;;9.80;8.52;;;;;;;;;;5102021;28;20119;-66
2021/09/14 07:17:19;;;;;;;9.57;8.57;;;;;;;;;;5100754;28;20016;-67
2021/09/14 07:19:44;;;;;;;9.57;7.65;;;;;;;;;;5085363;28;20521;-65
2021/09/14 07:22:09;;;;;;;9.27;7.72;;;;;;;;;;5104752;28;20483;-64
2021/09/14 07:24:35;;;;;;;11.02;7.38;;;;;;;;;;5101416;28;20012;-64
2021/09/14 07:27:00;;;;;;;8.00;7.20;;;;;;;;;;5083174;28;20031;-63
2021/09/14 07:29:27;;;;;;;8.30;7.50;;;;;;;;;;5101262;28;20428;-66
2021/09/14 07:31:52;;;;;;;8.35;7.53;;;;;;;;;;5098511;27;20028;-64
2021/09/14 07:34:17;;;;;;;7.97;7.15;;;;;;;;;;5099477;28;20035;-67
2021/09/14 07:36:43;;;;;;;8.45;7.60;;;;;;;;;;5099863;28;20110;-67
2021/09/14 07:39:08;;;;;;;8.70;7.30;;;;;;;;;;5096459;28;20586;-66
2021/09/14 07:41:33;;;;;;;8.80;7.30;;;;;;;;;;5082613;28;20110;-66
2021/09/14 07:43:59;;;;;;;8.57;7.28;;;;;;;;;;5099837;28;20630;-63
2021/09/14 07:46:24;;;;;;;9.02;7.45;;;;;;;;;;5080604;28;20035;-65
2021/09/14 07:48:49;;;;;;;9.35;7.70;;;;;;;;;;5100480;28;20635;-65
2021/09/14 07:51:15;;;;;;;10.65;8.52;;;;;;;;;;5080719;28;20456;-66
2021/09/14 07:53:40;;;;;;;10.50;8.07;;;;;;;;;;5101234;27;20046;-66
2021/09/14 07:56:06;;;;;;;11.32;7.82;;;;;;;;;;5098858;28;20027;-66
2021/09/14 07:58:31;;;;;;;11.15;7.68;;;;;;;;;;5101033;27;20024;-64
2021/09/14 08:00:57;;;;;;;14.63;7.35;;;;;;;;;;5080784;28;20028;-66
2021/09/14 08:03:22;;;;;;;10.75;7.53;;;;;;;;;;5098708;28;20136;-64
2021/09/14 08:05:47;;;;;;;10.73;7.38;;;;;;;;;;5101443;28;20114;-67
2021/09/14 08:08:13;;;;;;;8.95;7.65;;;;;;;;;;5084796;28;20032;-64
2021/09/14 08:10:38;;;;;;;10.52;7.60;;;;;;;;;;5103738;28;20102;-65
2021/09/14 08:13:04;;;;;;;9.40;7.82;;;;;;;;;;5097149;28;20011;-63
2021/09/14 08:15:30;;;;;;;8.45;7.22;;;;;;;;;;5082646;28;20161;-65
2021/09/14 08:17:55;;;;;;;10.25;7.80;;;;;;;;;;5099041;28;21728;-65
2021/09/14 08:20:21;;;;;;;9.15;7.55;;;;;;;;;;5083364;28;20123;-65
2021/09/14 08:22:46;;;;;;;11.55;7.43;;;;;;;;;;5085212;28;20797;-66
2021/09/14 08:25:13;;;;;;;10.35;7.68;;;;;;;;;;5104465;28;20027;-65
2021/09/14 08:27:38;;;;;;;11.23;8.05;;;;;;;;;;5103258;28;20020;-63
2021/09/14 08:30:05;;;;;;;11.68;7.65;;;;;;;;;;5103807;27;20100;-65
2021/09/14 08:32:30;;;;;;;10.27;7.15;;;;;;;;;;5101348;28;20500;-63
2021/09/14 08:34:56;;;;;;;10.05;7.40;;;;;;;;;;5102253;28;20036;-66
2021/09/14 08:37:21;;;;;;;9.85;6.90;;;;;;;;;;5083960;28;20089;-65
2021/09/14 08:39:46;;;;;;;11.05;8.00;;;;;;;;;;5100099;28;20039;-65
2021/09/14 08:42:14;;;;;;;11.73;8.00;;;;;;;;;;5104459;28;20035;-69
2021/09/14 08:44:42;;;;;;;11.10;8.10;;;;;;;;;;5082856;28;20031;-63
2021/09/14 08:47:08;;;;;;;10.45;7.82;;;;;;;;;;5096778;28;20031;-63
2021/09/14 08:49:34;;;;;;;12.60;8.32;;;;;;;;;;5102032;28;20032;-65
2021/09/14 08:51:59;;;;;;;12.40;7.82;;;;;;;;;;5088479;27;20023;-64
2021/09/14 08:54:24;;;;;;;17.02;8.20;;;;;;;;;;5105761;28;20450;-66
2021/09/14 08:56:50;;;;;;;9.80;7.22;;;;;;;;;;5105153;28;20019;-65
2021/09/14 08:59:26;;;;;;;12.30;7.68;;;;;;;;;;5105828;28;20032;-65
2021/09/14 09:02:04;;;;;;;8.73;7.13;;;;;;;;;;5088910;28;20023;-67
2021/09/14 09:04:29;;;;;;;10.18;7.07;;;;;;;;;;5106450;28;20530;-65
2021/09/14 09:06:55;;;;;;;10.75;6.63;;;;;;;;;;5088785;28;20023;-65
2021/09/14 09:09:29;;;;;;;8.10;7.25;;;;;;;;;;5107321;28;20062;-65
2021/09/14 09:12:03;;;;;;;8.73;6.72;;;;;;;;;;5103563;27;20110;-65
2021/09/14 09:14:40;;;;;;;10.15;6.80;;;;;;;;;;5103015;27;20027;-65
2021/09/14 09:17:14;;;;;;;9.10;6.70;;;;;;;;;;5101561;27;20761;-66
2021/09/14 09:19:42;;;;;;;10.02;6.38;;;;;;;;;;5104805;28;20358;-65
2021/09/14 09:22:11;;;;;;;8.88;6.47;;;;;;;;;;5100360;28;20882;-63
2021/09/14 09:24:47;;;;;;;9.98;6.47;;;;;;;;;;5101980;28;20792;-67
2021/09/14 09:27:14;;;;;;;11.13;7.00;;;;;;;;;;5099544;28;20038;-64
2021/09/14 09:29:39;;;;;;;9.10;6.70;;;;;;;;;;5107137;28;20052;-65
2021/09/14 09:32:05;;;;;;;12.00;6.88;;;;;;;;;;5107408;28;20031;-64
2021/09/14 09:34:31;;;;;;;10.10;6.50;;;;;;;;;;5106928;28;20016;-66
2021/09/14 09:37:07;;;;;;;9.30;6.43;;;;;;;;;;5106403;28;20157;-67
2021/09/14 09:39:50;;;;;;;7.88;6.25;;;;;;;;;;5103827;27;20534;-66
2021/09/14 09:42:16;;;;;;;6.68;5.45;;;;;;;;;;5089538;28;20399;-65
2021/09/14 09:44:53;;;;;;;10.13;5.88;;;;;;;;;;5102090;28;20024;-64
2021/09/14 09:47:20;;;;;;;10.38;6.30;;;;;;;;;;5104065;28;20023;-66
2021/09/14 09:49:47;;;;;;;11.50;6.10;;;;;;;;;;5107289;28;20031;-65
2021/09/14 09:52:13;;;;;;;8.43;5.60;;;;;;;;;;5108160;27;20081;-65
2021/09/14 09:54:39;;;;;;;7.03;5.07;;;;;;;;;;5107604;28;20039;-64
2021/09/14 09:57:08;;;;;;;8.10;6.15;;;;;;;;;;5110290;27;20039;-64
2021/09/14 09:59:33;;;;;;;10.45;5.22;;;;;;;;;;5091417;28;20028;-64
2021/09/14 10:02:28;;;;;;;7.87;5.60;;;;;;;;;;5094713;28;20034;-64
2021/09/14 10:05:02;;;;;;;9.02;5.60;;;;;;;;;;5108565;27;20042;-62
2021/09/14 10:07:29;;;;;;;11.90;5.68;;;;;;;;;;5111118;27;20034;-64
2021/09/14 10:09:57;;;;;;;9.68;5.60;;;;;;;;;;5113455;28;20384;-66
2021/09/14 10:12:31;;;;;;;6.38;5.07;;;;;;;;;;5094509;28;20019;-64
2021/09/14 10:15:02;;;;;;;8.40;5.90;;;;;;;;;;5111323;28;20115;-66
2021/09/14 10:17:29;;;;;;;6.57;5.07;;;;;;;;;;5109687;28;20083;-67
2021/09/14 10:19:55;;;;;;;6.47;5.10;;;;;;;;;;5106019;28;20024;-66
2021/09/14 10:22:25;;;;;;;6.77;5.37;;;;;;;;;;5111030;28;20044;-63
2021/09/14 10:24:59;;;;;;;9.95;5.60;;;;;;;;;;5112675;28;20106;-64
2021/09/14 10:27:41;;;;;;;9.82;5.93;;;;;;;;;;5112524;28;20038;-66
2021/09/14 10:30:09;;;;;;;8.70;5.30;;;;;;;;;;5089587;28;20107;-64
2021/09/14 10:32:43;;;;;;;9.15;5.35;;;;;;;;;;5091472;28;20024;-66
2021/09/14 10:35:10;;;;;;;7.03;5.10;;;;;;;;;;5090749;28;20020;-66
2021/09/14 10:37:36;;;;;;;7.00;5.50;;;;;;;;;;5091631;28;20089;-63
2021/09/14 10:40:10;;;;;;;6.10;4.75;;;;;;;;;;5091830;28;20020;-63
2021/09/14 10:42:46;;;;;;;6.10;4.75;;;;;;;;;;5091833;28;20111;-65
2021/09/14 10:45:17;;;;;;;7.70;5.63;;;;;;;;;;5083924;28;20017;-66
2021/09/14 10:47:48;;;;;;;6.07;5.03;;;;;;;;;;5088503;28;20024;-63
2021/09/14 10:50:32;;;;;;;6.68;4.70;;;;;;;;;;5088693;28;20055;-63
2021/09/14 10:53:02;;;;;;;8.23;4.70;;;;;;;;;;5110440;27;20024;-65
2021/09/14 10:55:30;;;;;;;5.15;4.65;;;;;;;;;;5092648;28;20038;-64
2021/09/14 10:58:00;;;;;;;6.85;4.50;;;;;;;;;;5092350;28;20028;-64
2021/09/14 11:00:34;;;;;;;6.35;4.47;;;;;;;;;;5124057;27;20023;-62
2021/09/14 11:03:01;;;;;;;9.43;4.50;;;;;;;;;;5090138;28;20023;-67
2021/09/14 11:05:32;;;;;;;6.55;4.50;;;;;;;;;;5092657;28;20103;-66
2021/09/14 11:07:59;;;;;;;5.00;4.13;;;;;;;;;;5083412;28;20539;-65
2021/09/14 11:10:24;;;;;;;4.60;4.13;;;;;;;;;;5090908;28;20244;-65
2021/09/14 11:12:50;;;;;;;7.80;6.75;;;;;;;;;;5088540;28;20027;-63
2021/09/14 11:15:15;;;;;;;6.87;4.10;;;;;;;;;;5090803;28;20024;-64
2021/09/14 11:17:41;;;;;;;9.03;4.37;;;;;;;;;;5091875;28;20027;-63
2021/09/14 11:20:12;;;;;;;4.70;4.20;;;;;;;;;;5091753;28;20020;-63
2021/09/14 11:22:39;;;;;;;4.97;4.00;;;;;;;;;;5091969;28;20834;-65
2021/09/14 11:25:14;;;;;;;7.07;4.57;;;;;;;;;;5089924;28;20074;-63
2021/09/14 11:28:00;;;;;;;4.63;4.10;;;;;;;;;;5091774;28;20027;-63
2021/09/14 11:30:26;;;;;;;4.20;3.80;;;;;;;;;;5106061;28;20050;-64
2021/09/14 11:32:52;;;;;;;;;;;;;;;;;;5109885;28;20051;-65
2021/09/14 11:35:19;;;;;;;4.90;4.15;;;;;;;;;;5111221;28;19912;-66
2021/09/14 11:37:56;;;;;;;5.93;3.75;;;;;;;;;;5128513;27;20065;-64
2021/09/14 11:40:21;;;;;;;6.38;3.95;;;;;;;;;;5131630;27;20019;-66
2021/09/14 11:43:01;;;;;;;4.93;3.80;;;;;;;;;;5131069;27;20415;-65
2021/09/14 11:45:28;;;;;;;4.45;3.90;;;;;;;;;;5108809;27;20042;-66
2021/09/14 11:47:55;;;;;;;5.88;4.00;;;;;;;;;;5108981;28;20038;-65
2021/09/14 11:50:28;;;;;;;4.55;3.92;;;;;;;;;;4043938;28;10000033;-66
2021/09/14 11:53:08;;;;;;;6.20;4.18;;;;;;;;;;5104578;28;20030;-64
2021/09/14 11:55:38;;;;;;;7.45;4.55;;;;;;;;;;5102232;27;20039;-64
2021/09/14 11:58:04;;;;;;;5.88;4.00;;;;;;;;;;5121414;27;20031;-64
2021/09/14 12:00:42;;;;;;;4.72;3.83;;;;;;;;;;5108598;28;20028;-67
2021/09/14 12:03:08;;;;;;;6.78;4.10;;;;;;;;;;5107587;28;20512;-63
2021/09/14 12:05:34;;;;;;;5.33;4.03;;;;;;;;;;5109039;27;20023;-63
2021/09/14 12:08:02;;;;;;;4.73;4.10;;;;;;;;;;5108905;28;20069;-64
2021/09/14 12:10:28;;;;;;;5.57;4.10;;;;;;;;;;5090599;28;20050;-68
2021/09/14 12:12:55;;;;;;;5.20;4.13;;;;;;;;;;5109430;27;20507;-64
2021/09/14 12:15:28;;;;;;;3.92;3.53;;;;;;;;;;5104048;28;20032;-64
2021/09/14 12:18:03;;;;;;;5.65;3.63;;;;;;;;;;5123738;28;20074;-66
2021/09/14 12:20:29;;;;;;;4.50;3.80;;;;;;;;;;5107069;28;20050;-64
2021/09/14 12:22:54;;;;;;;4.60;3.80;;;;;;;;;;5091817;28;20084;-66
2021/09/14 12:25:19;;;;;;;4.20;3.77;;;;;;;;;;5112068;28;20118;-65
2021/09/14 12:27:45;;;;;;;4.57;3.87;;;;;;;;;;5113808;27;20118;-67
2021/09/14 12:30:10;;;;;;;5.03;3.57;;;;;;;;;;5111663;27;20052;-67
2021/09/14 12:32:36;;;;;;;7.00;3.70;;;;;;;;;;5110201;27;20158;-64
2021/09/14 12:35:01;;;;;;;5.73;3.80;;;;;;;;;;5110813;27;20032;-65
2021/09/14 12:37:27;;;;;;;6.07;3.53;;;;;;;;;;5112560;27;20529;-65
2021/09/14 12:39:52;;;;;;;6.97;3.80;;;;;;;;;;5094156;27;20030;-63
2021/09/14 12:42:17;;;;;;;4.27;3.30;;;;;;;;;;5114697;27;20435;-64
2021/09/14 12:44:43;;;;;;;5.77;4.20;;;;;;;;;;5112437;27;20044;-64
2021/09/14 12:47:08;;;;;;;4.10;3.70;;;;;;;;;;5112457;27;20038;-64
2021/09/14 12:49:33;;;;;;;4.07;3.67;;;;;;;;;;5114577;28;20477;-64
2021/09/14 12:51:59;;;;;;;6.17;4.07;;;;;;;;;;5114573;28;20023;-66
2021/09/14 12:54:24;;;;;;;9.37;4.33;;;;;;;;;;5095397;28;20376;-64
2021/09/14 12:56:50;;;;;;;5.80;3.23;;;;;;;;;;5113225;28;20035;-65
2021/09/14 12:59:15;;;;;;;5.07;4.07;;;;;;;;;;5095722;28;20492;-64
2021/09/14 13:01:40;;;;;;;4.47;3.80;;;;;;;;;;5094857;28;20094;-66
2021/09/14 13:04:06;;;;;;;5.83;3.90;;;;;;;;;;5093550;28;20644;-66
2021/09/14 13:06:31;;;;;;;5.53;3.70;;;;;;;;;;5116858;27;20023;-64
2021/09/14 13:08:57;;;;;;;5.90;3.70;;;;;;;;;;5115254;28;20114;-65
2021/09/14 13:11:22;;;;;;;4.10;3.53;;;;;;;;;;5096059;28;20031;-67
2021/09/14 13:16:32;;;;;;;3.85;3.45;;;;;;;;;;5114986;28;20042;-63
2021/09/14 13:18:57;;;;;;;4.33;3.57;;;;;;;;;;5130178;27;20404;-65
2021/09/14 13:21:24;;;;;;;3.87;3.43;;;;;;;;;;5114196;28;20080;-68
2021/09/14 13:23:51;;;;;;;5.50;3.65;;;;;;;;;;5115223;28;20102;-64
2021/09/14 13:26:18;;;;;;;;;;;;;;;;;;5114181;27;20020;-63
2021/09/14 13:28:43;;;;;;;4.75;3.60;;;;;;;;;;5112551;28;19933;-65
2021/09/14 13:31:09;;;;;;;4.93;3.90;;;;;;;;;;5130388;27;20024;-66
2021/09/14 13:33:35;;;;;;;4.13;3.43;;;;;;;;;;5113962;27;20032;-65
2021/09/14 13:36:01;;;;;;;4.25;3.85;;;;;;;;;;5117446;27;20031;-66
2021/09/14 13:38:30;;;;;;;7.47;4.13;;;;;;;;;;5098325;27;20025;-63
2021/09/14 13:41:08;;;;;;;5.75;3.60;;;;;;;;;;5093187;28;20027;-66
2021/09/14 13:46:10;;;;;;;4.28;3.15;;;;;;;;;;5093925;28;20027;-65
2021/09/14 13:48:40;;;;;;;5.57;3.17;;;;;;;;;;5126031;27;20232;-65
2021/09/14 13:51:07;;;;;;;6.10;3.53;;;;;;;;;;5106887;28;20099;-65
2021/09/14 13:53:33;;;;;;;4.70;3.88;;;;;;;;;;5095943;28;20027;-65
2021/09/14 13:55:58;;;;;;;4.72;3.38;;;;;;;;;;5112414;28;20507;-66
2021/09/14 13:58:24;;;;;;;3.57;3.27;;;;;;;;;;5114212;28;20032;-65
2021/09/14 14:00:49;;;;;;;4.93;2.97;;;;;;;;;;5111274;28;20031;-63
2021/09/14 14:03:15;;;;;;;4.23;3.37;;;;;;;;;;5114383;28;20035;-66
2021/09/14 14:05:40;;;;;;;4.27;3.60;;;;;;;;;;5095863;27;20027;-65
2021/09/14 14:08:06;;;;;;;4.13;3.40;;;;;;;;;;5114274;27;20031;-64
2021/09/14 14:10:31;;;;;;;4.33;3.30;;;;;;;;;;5097144;28;20031;-63
2021/09/14 14:12:57;;;;;;;5.77;3.50;;;;;;;;;;5095153;27;20028;-66
2021/09/14 14:15:22;;;;;;;4.73;3.60;;;;;;;;;;5100698;28;20040;-65
2021/09/14 14:17:48;;;;;;;3.83;3.50;;;;;;;;;;5095353;28;20035;-65
2021/09/14 14:20:13;;;;;;;4.20;3.83;;;;;;;;;;5112468;28;20027;-65
2021/09/14 14:22:39;;;;;;;5.63;3.60;;;;;;;;;;5112932;28;20089;-63
2021/09/14 14:25:05;;;;;;;4.87;3.50;;;;;;;;;;5105258;28;20443;-69
2021/09/14 14:27:31;;;;;;;;;;;;;;;;;;5107408;27;20107;-65
2021/09/14 14:29:56;;;;;;;3.67;3.20;;;;;;;;;;5105319;27;20012;-63
2021/09/14 14:32:21;;;;;;;6.83;3.57;;;;;;;;;;5091086;28;20393;-65
2021/09/14 14:34:47;;;;;;;5.10;3.80;;;;;;;;;;5094113;28;20076;-63
2021/09/14 14:37:13;;;;;;;4.07;3.33;;;;;;;;;;5118155;27;20027;-64
2021/09/14 14:39:39;;;;;;;6.50;4.20;;;;;;;;;;5112753;28;20036;-63
2021/09/14 14:42:04;;;;;;;5.83;3.70;;;;;;;;;;5112638;28;20027;-64
2021/09/14 14:44:31;;;;;;;5.23;3.20;;;;;;;;;;5112062;28;20047;-65
2021/09/14 14:46:57;;;;;;;6.03;3.80;;;;;;;;;;5112429;28;20031;-64
2021/09/14 14:49:22;;;;;;;3.97;3.30;;;;;;;;;;5113078;28;20034;-66
2021/09/14 14:51:47;;;;;;;4.43;3.50;;;;;;;;;;5094785;28;20015;-66
2021/09/14 14:54:13;;;;;;;3.60;3.30;;;;;;;;;;5113381;28;20024;-65
2021/09/14 14:56:38;;;;;;;4.83;3.60;;;;;;;;;;5093175;28;20446;-65
2021/09/14 14:59:04;;;;;;;4.13;3.50;;;;;;;;;;5112260;28;20102;-64
2021/09/14 15:01:30;;;;;;;4.07;3.67;;;;;;;;;;5112602;28;20031;-65
2021/09/14 15:03:55;;;;;;;5.17;3.90;;;;;;;;;;5113308;28;20054;-65
2021/09/14 15:06:21;;;;;;;5.97;4.13;;;;;;;;;;5120235;27;20030;-65
2021/09/14 15:08:46;;;;;;;4.37;3.80;;;;;;;;;;5114879;27;20030;-63
2021/09/14 15:11:12;;;;;;;5.20;3.87;;;;;;;;;;5132369;27;20106;-63
2021/09/14 15:13:37;;;;;;;8.57;4.00;;;;;;;;;;5130924;27;20135;-62
2021/09/14 15:16:03;;;;;;;6.70;3.70;;;;;;;;;;5112434;27;20030;-63
2021/09/14 15:18:28;;;;;;;4.47;3.70;;;;;;;;;;5112560;28;20431;-64
2021/09/14 15:20:54;;;;;;;5.13;3.53;;;;;;;;;;5093809;28;20020;-66
2021/09/14 15:23:21;;;;;;;5.40;3.50;;;;;;;;;;5110938;28;20051;-64
2021/09/14 15:25:50;;;;;;;6.47;3.83;;;;;;;;;;5111344;28;20024;-64
2021/09/14 15:28:16;;;;;;;5.38;3.70;;;;;;;;;;5110866;28;20037;-62
2021/09/14 15:30:54;;;;;;;7.10;4.80;;;;;;;;;;5109100;28;20047;-64
2021/09/14 15:33:21;;;;;;;5.85;3.70;;;;;;;;;;5090103;28;20024;-64
2021/09/14 15:35:48;;;;;;;5.07;3.80;;;;;;;;;;5092821;28;20467;-67
2021/09/14 15:38:22;;;;;;;6.15;3.95;;;;;;;;;;5112782;28;20587;-63
2021/09/14 15:40:52;;;;;;;5.75;3.90;;;;;;;;;;5108322;28;20032;-67
2021/09/14 15:43:23;;;;;;;11.98;5.63;;;;;;;;;;5112691;28;20016;-66
2021/09/14 15:45:49;;;;;;;7.43;4.45;;;;;;;;;;5109488;28;20054;-62